Time;durP1;ratioP1;P1;durP2;ratioP2;P2;SDS_P1;SDS_P2;PMS_P1;PMS_P2;Temp;Humidity;BMP_temperature;BMP_pressure;BME280_temperature;BME280_humidity;BME280_pressure;Samples;Min_cycle;Max_cycle;Signal;HPM_P1;HPM_P2
2022/08/13 00:00:58;;;;;;;;;22.75;22.00;;;;;30.02;26.99;98968.22;5071309;28;8954;-82
2022/08/13 00:03:30;;;;;;;;;20.75;20.25;;;;;30.02;26.99;98967.34;5073068;28;10085;-82
2022/08/13 00:06:31;;;;;;;;;20.00;20.00;;;;;30.00;26.95;98970.19;5071063;28;8850;-83
2022/08/13 00:09:04;;;;;;;;;22.50;22.50;;;;;29.92;27.01;98965.50;5102087;28;8905;-82
2022/08/13 00:14:41;;;;;;;;;24.00;22.75;;;;;29.95;27.13;98958.16;5031058;28;8878;-82
2022/08/13 00:17:12;;;;;;;;;20.75;19.50;;;;;29.97;27.44;98967.78;4996633;28;8900;-82
2022/08/13 00:19:45;;;;;;;;;21.00;21.00;;;;;30.00;26.79;98961.25;5012927;28;8883;-82
2022/08/13 00:22:25;;;;;;;;;24.50;23.75;;;;;29.99;27.21;98971.16;5009047;28;8848;-83
2022/08/13 00:24:59;;;;;;;;;18.75;18.75;;;;;29.96;27.70;98965.22;5009865;28;8832;-82
2022/08/13 00:27:30;;;;;;;;;22.00;21.50;;;;;29.85;27.63;98971.56;5003799;28;8832;-82
2022/08/13 00:30:19;;;;;;;;;22.00;20.75;;;;;29.84;27.89;98981.47;5009598;28;9633;-82
2022/08/13 00:33:03;;;;;;;;;22.50;22.00;;;;;29.81;28.00;98995.19;4980862;28;8986;-81
2022/08/13 00:35:36;;;;;;;;;23.50;22.75;;;;;29.81;28.25;99003.25;5010415;28;9016;-84
2022/08/13 00:38:13;;;;;;;;;23.50;23.50;;;;;29.76;27.71;98999.28;4993680;28;8903;-83
2022/08/13 00:40:43;;;;;;;;;21.75;20.75;;;;;29.65;28.20;99003.72;5009983;28;8875;-83
2022/08/13 00:43:26;;;;;;;;;25.00;24.33;;;;;29.66;28.93;99009.94;4992709;28;8860;-82
2022/08/13 00:46:02;;;;;;;;;15.00;15.00;;;;;29.39;29.50;99016.75;4992804;28;8848;-82
2022/08/13 00:48:47;;;;;;;;;25.00;22.25;;;;;29.29;30.14;99022.09;4976374;28;8953;-83
2022/08/13 00:51:24;;;;;;;;;21.25;21.25;;;;;29.05;30.65;99016.97;5006973;28;8836;-82
2022/08/13 00:54:17;;;;;;;;;24.00;24.00;;;;;28.73;31.39;99017.03;5047905;28;8884;-82
2022/08/13 00:56:46;;;;;;;;;23.00;23.00;;;;;28.66;31.78;99011.34;5070412;28;8876;-82
2022/08/13 00:59:16;;;;;;;;;21.60;21.60;;;;;28.13;32.96;99022.00;5070458;28;8826;-81
2022/08/13 01:01:47;;;;;;;;;19.60;19.20;;;;;28.08;32.92;99021.50;5085989;28;8873;-81
2022/08/13 01:04:20;;;;;;;;;19.00;18.00;;;;;28.16;33.06;99013.69;5093874;28;8909;-82
2022/08/13 01:06:57;;;;;;;;;19.60;17.60;;;;;28.33;32.88;99020.34;5071867;28;8890;-82
2022/08/13 01:09:29;;;;;;;;;20.00;19.50;;;;;28.44;32.82;99011.41;5072654;28;8848;-83
2022/08/13 01:12:20;;;;;;;;;18.40;18.20;;;;;27.99;33.79;99015.91;5089307;28;8840;-80
2022/08/13 01:14:56;;;;;;;;;18.00;16.40;;;;;27.95;34.22;99018.97;5105790;28;8865;-82
2022/08/13 01:17:27;;;;;;;;;17.20;16.20;;;;;26.98;36.28;99026.53;5053060;28;9124;-81
2022/08/13 01:20:18;;;;;;;;;15.80;15.60;;;;;26.95;36.51;99021.41;5051051;28;9711;-80
2022/08/13 01:23:05;;;;;;;;;16.00;16.00;;;;;26.86;37.00;99022.97;5068280;28;8849;-82
2022/08/13 01:25:37;;;;;;;;;18.20;16.80;;;;;26.20;38.83;99026.09;5051749;28;8837;-80
2022/08/13 01:28:22;;;;;;;;;12.60;12.00;;;;;25.98;39.80;99032.13;5068691;28;9082;-81
2022/08/13 01:30:52;;;;;;;;;11.40;11.40;;;;;25.83;40.46;99028.72;5068274;28;8842;-83
2022/08/13 01:33:22;;;;;;;;;14.80;14.80;;;;;25.77;40.69;99029.16;5001363;28;8861;-83
2022/08/13 01:35:53;;;;;;;;;13.20;12.80;;;;;25.66;40.89;99029.06;5076773;28;8932;-82
2022/08/13 01:38:27;;;;;;;;;12.40;12.40;;;;;25.95;40.56;99031.50;5074240;28;8857;-80
2022/08/13 01:40:57;;;;;;;;;15.00;13.20;;;;;26.36;39.46;99030.28;5057621;28;8883;-80
2022/08/13 01:43:30;;;;;;;;;11.00;11.00;;;;;26.37;39.48;99031.97;5051520;28;8855;-81
2022/08/13 01:45:59;;;;;;;;;12.80;11.40;;;;;26.52;39.22;99027.31;5052742;28;8847;-80
2022/08/13 01:51:30;;;;;;;;;15.00;13.80;;;;;26.40;40.23;99027.25;5047999;28;8929;-81
2022/08/13 01:54:02;;;;;;;;;12.40;12.40;;;;;26.11;40.80;99032.09;5031491;28;8860;-82
2022/08/13 01:56:51;;;;;;;;;14.40;14.40;;;;;25.94;41.32;99033.31;5049670;28;8940;-79
2022/08/13 01:59:20;;;;;;;;;13.40;13.00;;;;;25.63;42.25;99023.94;5069930;28;8854;-80
2022/08/13 02:01:53;;;;;;;;;13.80;12.60;;;;;25.29;43.41;99015.63;5085484;28;8947;-80
2022/08/13 02:04:33;;;;;;;;;15.40;14.40;;;;;25.37;43.16;99017.78;5070092;28;8842;-80
2022/08/13 02:07:08;;;;;;;;;15.20;15.20;;;;;25.22;43.84;99020.53;5069877;28;8953;-80
2022/08/13 02:09:45;;;;;;;;;14.60;14.40;;;;;24.79;45.08;99015.47;5069672;28;8851;-79
2022/08/13 02:12:28;;;;;;;;;13.40;11.20;;;;;25.15;44.20;99015.72;5102203;28;8858;-80
2022/08/13 02:15:16;;;;;;;;;16.00;13.00;;;;;24.97;44.66;99021.38;5068560;28;8842;-79
2022/08/13 02:17:45;;;;;;;;;12.20;12.20;;;;;25.26;43.68;99016.72;5069393;28;8870;-80
2022/08/13 02:20:34;;;;;;;;;12.00;11.20;;;;;24.85;44.94;99007.03;5091098;28;8832;-86
2022/08/13 02:23:06;;;;;;;;;13.60;13.60;;;;;24.68;45.63;99004.69;5059151;28;8840;-88
2022/08/13 02:25:38;;;;;;;;;13.00;11.80;;;;;24.83;45.30;99003.63;5097208;28;8843;-83
2022/08/13 02:28:10;;;;;;;;;13.20;12.40;;;;;25.31;43.83;99012.88;5082998;28;8853;-87
2022/08/13 02:30:56;;;;;;;;;13.60;13.40;;;;;25.42;43.73;99012.97;5068894;28;8898;-85
2022/08/13 02:33:27;;;;;;;;;12.20;12.20;;;;;25.42;43.78;99005.81;5080230;28;8867;-84
2022/08/13 02:35:57;;;;;;;;;13.80;12.40;;;;;25.47;43.97;99010.84;5090723;28;8847;-85
2022/08/13 02:38:26;;;;;;;;;15.00;14.80;;;;;25.09;44.91;99009.84;5076021;28;8846;-83
2022/08/13 02:43:51;;;;;;;;;13.20;12.00;;;;;24.93;45.60;99013.69;5087516;28;8870;-86
2022/08/13 02:46:27;;;;;;;;;13.40;13.40;;;;;24.78;46.21;99021.75;5069221;28;8846;-84
2022/08/13 02:48:59;;;;;;;;;12.60;11.60;;;;;25.19;45.26;99017.22;5058234;28;8870;-83
2022/08/13 02:51:30;;;;;;;;;13.80;13.80;;;;;25.32;44.78;99003.91;5088628;28;8992;-83
2022/08/13 02:54:20;;;;;;;;;14.60;14.60;;;;;24.68;46.86;98999.34;5081943;28;8939;-85
2022/08/13 02:56:52;;;;;;;;;16.00;16.00;;;;;24.07;48.96;99005.09;5085172;28;8870;-86
2022/08/13 02:59:21;;;;;;;;;15.40;14.80;;;;;23.83;49.70;98994.19;5089598;28;8870;-84
2022/08/13 03:02:10;;;;;;;;;13.20;13.20;;;;;24.13;48.84;99001.19;5046861;28;8960;-83
2022/08/13 03:04:45;;;;;;;;;13.60;13.60;;;;;23.90;49.73;99006.19;5083417;28;8866;-84
2022/08/13 03:07:14;;;;;;;;;15.20;14.00;;;;;23.84;50.18;99009.25;5085274;28;8866;-83
2022/08/13 03:09:46;;;;;;;;;13.80;13.80;;;;;24.26;48.35;99010.06;5096538;28;8989;-84
2022/08/13 03:12:22;;;;;;;;;13.80;13.80;;;;;23.75;50.48;99015.97;5077316;28;8897;-84
2022/08/13 03:15:00;;;;;;;;;13.00;13.00;;;;;23.72;50.48;99013.50;5077541;28;9023;-83
2022/08/13 03:17:31;;;;;;;;;15.00;15.00;;;;;24.02;49.65;99006.34;5092748;28;8869;-85
2022/08/13 03:20:01;;;;;;;;;13.60;13.00;;;;;23.43;51.55;99014.47;5074824;28;8892;-89
2022/08/13 03:22:49;;;;;;;;;52.25;42.75;;;;;23.38;51.99;99019.22;5074565;28;8919;-87
2022/08/13 03:25:20;;;;;;;;;14.20;13.80;;;;;23.14;52.72;99017.97;5071891;28;8927;-80
2022/08/13 03:27:55;;;;;;;;;13.80;13.20;;;;;23.43;51.79;99017.16;5065776;28;8836;-82
2022/08/13 03:30:26;;;;;;;;;14.80;13.40;;;;;23.56;51.62;99018.09;5050285;28;8844;-85
2022/08/13 03:32:58;;;;;;;;;15.00;15.00;;;;;23.85;50.53;99015.41;5050112;28;8840;-83
2022/08/13 03:35:28;;;;;;;;;14.60;13.00;;;;;23.82;50.81;99013.81;5053104;28;8852;-83
2022/08/13 03:38:15;;;;;;;;;13.80;12.80;;;;;24.12;49.83;99021.63;5075228;28;8982;-83
2022/08/13 03:41:02;;;;;;;;;14.00;12.60;;;;;24.13;49.69;99025.16;5033644;28;9589;-84
2022/08/13 03:43:35;;;;;;;;;15.00;15.00;;;;;24.21;49.72;99017.50;5016789;28;8896;-87
2022/08/13 03:46:23;;;;;;;;;15.40;14.60;;;;;24.51;48.61;99012.00;4997810;28;8991;-87
2022/08/13 03:48:55;;;;;;;;;14.60;14.40;;;;;24.82;47.76;99022.41;4993153;28;8850;-86
2022/08/13 03:51:26;;;;;;;;;13.60;13.00;;;;;24.94;47.58;99026.91;5006259;28;8862;-87
2022/08/13 03:54:04;;;;;;;;;16.00;15.00;;;;;24.63;48.56;99018.34;5006541;28;8850;-81
2022/08/13 03:56:32;;;;;;;;;31.25;30.00;;;;;24.42;48.98;99011.72;5022692;28;8996;-84
2022/08/13 03:59:05;;;;;;;;;14.00;12.80;;;;;24.31;49.50;99017.78;5015188;28;8852;-82
2022/08/13 04:01:34;;;;;;;;;17.20;17.00;;;;;24.66;48.41;99017.25;5012216;28;8852;-81
2022/08/13 04:04:11;;;;;;;;;16.20;15.20;;;;;24.58;48.62;99016.94;5012438;28;8872;-81
2022/08/13 04:06:40;;;;;;;;;13.00;13.00;;;;;24.64;48.49;99014.69;5012363;28;9014;-83
2022/08/13 04:09:13;;;;;;;;;16.60;16.60;;;;;24.26;49.69;99022.56;4997064;28;8950;-82
2022/08/13 04:11:42;;;;;;;;;14.00;14.00;;;;;24.31;49.49;99018.63;4996621;28;8848;-82
2022/08/13 04:14:13;;;;;;;;;24.50;24.50;;;;;24.13;50.38;99018.00;5018342;28;8976;-81
2022/08/13 04:17:05;;;;;;;;;15.60;15.60;;;;;24.01;50.56;99017.97;5066433;28;8931;-83
2022/08/13 04:19:33;;;;;;;;;14.40;14.40;;;;;24.46;49.22;99022.09;5060984;28;8874;-80
2022/08/13 04:22:02;;;;;;;;;51.75;42.75;;;;;24.59;48.89;99023.97;5028459;28;8858;-81
2022/08/13 04:24:32;;;;;;;;;16.60;16.60;;;;;24.32;49.65;99028.31;5037856;28;9661;-82
2022/08/13 04:27:02;;;;;;;;;16.20;16.20;;;;;23.85;51.15;99023.41;5072263;28;9712;-80
2022/08/13 04:29:32;;;;;;;;;14.20;14.20;;;;;23.89;51.20;99023.13;5071760;28;9600;-82
2022/08/13 04:32:18;;;;;;;;;15.20;15.20;;;;;23.59;52.13;99020.56;5056202;28;8869;-84
2022/08/13 04:34:54;;;;;;;;;15.00;14.40;;;;;23.64;51.96;99018.44;5074865;28;8854;-81
2022/08/13 04:37:27;;;;;;;;;14.20;14.20;;;;;23.72;51.88;99018.84;5075380;28;9718;-82
2022/08/13 04:40:13;;;;;;;;;12.60;12.20;;;;;23.94;51.33;99017.50;5072699;28;8924;-82
2022/08/13 04:42:58;;;;;;;;;16.00;16.00;;;;;24.05;50.95;99019.47;5071983;28;8873;-83
2022/08/13 04:45:30;;;;;;;;;14.00;13.40;;;;;23.71;52.06;99022.44;5056692;28;8838;-82
2022/08/13 04:48:03;;;;;;;;;17.20;16.60;;;;;24.19;50.51;99032.75;5089744;28;8864;-84
2022/08/13 04:50:34;;;;;;;;;16.20;15.20;;;;;24.41;50.10;99042.00;5055847;28;8850;-86
2022/08/13 04:53:07;;;;;;;;;17.40;17.40;;;;;24.28;50.50;99031.28;5071493;28;8985;-85
2022/08/13 04:55:38;;;;;;;;;16.20;15.20;;;;;24.31;50.48;99039.94;5056760;28;8944;-85
2022/08/13 04:58:33;;;;;;;;;16.80;16.40;;;;;24.65;49.42;99047.53;5060035;28;8863;-84
2022/08/13 05:01:08;;;;;;;;;20.60;19.00;;;;;24.56;49.57;99057.03;5090673;28;8872;-82
2022/08/13 05:03:58;;;;;;;;;14.00;14.00;;;;;25.04;48.21;99057.34;5074359;28;8854;-85
2022/08/13 05:06:45;;;;;;;;;16.40;16.40;;;;;25.32;47.32;99065.31;5055508;28;8870;-88
2022/08/13 05:09:20;;;;;;;;;14.80;14.00;;;;;25.47;47.10;99069.56;5054166;28;8865;-84
2022/08/13 05:11:59;;;;;;;;;15.80;15.80;;;;;25.24;47.68;99074.69;5085759;28;9014;-86
2022/08/13 05:14:35;;;;;;;;;14.40;14.40;;;;;25.55;47.23;99072.56;5054132;28;8846;-83
2022/08/13 05:17:07;;;;;;;;;16.20;14.60;;;;;25.79;46.77;99079.81;5039085;28;8851;-85
2022/08/13 05:19:42;;;;;;;;;14.00;14.00;;;;;25.82;46.88;99083.13;5073675;28;9047;-86
2022/08/13 05:22:11;;;;;;;;;20.20;18.60;;;;;25.62;48.02;99067.66;5090306;28;9445;-85
2022/08/13 05:24:53;;;;;;;;;16.00;16.00;;;;;25.33;48.61;99067.00;5096742;28;8931;-84
2022/08/13 05:27:44;;;;;;;;;16.20;15.20;;;;;25.37;48.67;99068.50;5056909;28;8836;-86
2022/08/13 05:30:14;;;;;;;;;16.00;15.00;;;;;25.34;48.31;99069.56;5132561;27;8932;-84
2022/08/13 05:33:01;;;;;;;;;17.00;17.00;;;;;25.36;48.51;99064.13;5074563;28;8887;-85
2022/08/13 05:35:43;;;;;;;;;15.00;15.00;;;;;25.44;48.39;99073.31;5090788;28;8858;-83
2022/08/13 05:38:33;;;;;;;;;18.00;17.20;;;;;24.47;51.21;99068.25;5092634;28;8879;-84
2022/08/13 05:41:12;;;;;;;;;15.00;14.40;;;;;24.88;49.83;99067.34;5029048;28;8887;-82
2022/08/13 05:43:41;;;;;;;;;17.80;17.80;;;;;24.77;50.41;99064.56;5095036;28;8895;-85
2022/08/13 05:46:11;;;;;;;;;15.00;15.00;;;;;25.03;49.90;99066.31;5087990;28;8860;-83
2022/08/13 05:48:55;;;;;;;;;18.20;17.60;;;;;25.12;49.98;99070.16;5101197;28;8901;-83
2022/08/13 05:51:31;;;;;;;;;17.40;17.40;;;;;25.00;50.97;99065.66;5065276;28;8847;-83
2022/08/13 05:54:39;;;;;;;;;18.20;18.20;;;;;24.70;51.83;99070.28;5046307;28;8864;-84
2022/08/13 05:57:29;;;;;;;;;18.40;17.60;;;;;25.06;51.90;99073.25;5080313;28;8869;-89
2022/08/13 06:05:37;;;;;;;;;17.60;17.60;;;;;24.26;54.30;99086.50;5057131;28;8899;-84
2022/08/13 06:08:17;;;;;;;;;19.00;18.20;;;;;24.50;53.25;99079.56;5014401;28;8852;-83
2022/08/13 06:11:09;;;;;;;;;19.20;18.40;;;;;24.64;53.62;99077.84;5031050;28;8856;-85
2022/08/13 06:13:48;;;;;;;;;22.40;21.00;;;;;24.37;54.12;99073.34;5016013;28;8872;-84
2022/08/13 06:16:34;;;;;;;;;18.60;18.60;;;;;23.49;56.70;99069.97;4999270;28;8997;-85
2022/08/13 06:19:25;;;;;;;;;21.40;19.00;;;;;23.21;57.91;99078.78;5000626;28;8857;-83
2022/08/13 06:22:00;;;;;;;;;16.60;16.60;;;;;22.89;59.53;99074.41;4982238;28;8951;-84
2022/08/13 06:24:32;;;;;;;;;21.00;20.20;;;;;23.22;58.52;99073.38;5047486;28;8861;-82
2022/08/13 06:27:04;;;;;;;;;18.80;17.80;;;;;23.11;59.03;99073.16;5055366;28;8901;-84
2022/08/13 06:29:45;;;;;;;;;21.80;20.60;;;;;22.95;59.70;99073.19;5085046;28;8861;-85
2022/08/13 06:32:21;;;;;;;;;18.80;18.80;;;;;23.04;60.42;99071.81;5067677;28;8940;-82
2022/08/13 06:35:10;;;;;;;;;20.40;20.20;;;;;22.80;61.07;99074.06;5068669;28;8850;-84
2022/08/13 06:37:52;;;;;;;;;24.00;22.00;;;;;23.28;59.56;99073.00;5069249;28;8835;-83
2022/08/13 06:40:25;;;;;;;;;21.20;20.40;;;;;23.04;60.41;99077.13;5077078;28;8854;-84
2022/08/13 06:43:04;;;;;;;;;20.60;20.60;;;;;23.11;59.71;99076.66;5068388;28;8862;-85
2022/08/13 06:45:36;;;;;;;;;17.40;17.20;;;;;23.31;59.27;99077.28;5039868;28;8919;-84
2022/08/13 06:48:13;;;;;;;;;22.80;21.60;;;;;23.45;58.82;99073.78;5055545;28;9958;-81
2022/08/13 06:50:46;;;;;;;;;24.00;23.40;;;;;23.47;58.44;99072.72;5055622;28;8846;-84
2022/08/13 06:53:18;;;;;;;;;20.00;18.60;;;;;23.47;58.79;99072.72;5055304;28;8854;-86
2022/08/13 06:56:11;;;;;;;;;22.00;19.20;;;;;23.14;60.36;99084.47;5069746;28;8842;-83
2022/08/13 06:59:01;;;;;;;;;19.00;19.00;;;;;23.32;59.33;99082.50;5024044;28;8847;-84
2022/08/13 07:01:42;;;;;;;;;19.20;18.00;;;;;23.24;60.28;99089.25;5073587;28;8867;-85
2022/08/13 07:04:31;;;;;;;;;22.60;22.60;;;;;23.07;60.64;99079.63;5087940;28;8969;-84
2022/08/13 07:07:00;;;;;;;;;24.50;23.25;;;;;22.94;62.16;99080.28;5072260;28;8853;-83
2022/08/13 07:09:33;;;;;;;;;22.60;22.40;;;;;23.10;61.49;99079.41;5104981;28;8836;-83
2022/08/13 07:12:13;;;;;;;;;22.80;21.40;;;;;23.14;61.17;99078.31;5070957;28;8843;-83
2022/08/13 07:14:43;;;;;;;;;19.60;19.60;;;;;22.70;62.33;99085.28;5085761;28;9019;-83
2022/08/13 07:17:16;;;;;;;;;22.40;20.20;;;;;22.65;62.78;99091.81;5055295;28;8877;-84
2022/08/13 07:19:45;;;;;;;;;22.00;22.00;;;;;22.90;62.81;99089.41;5064540;28;8842;-86
2022/08/13 07:22:34;;;;;;;;;23.60;23.60;;;;;23.07;61.98;99088.44;5076961;28;8842;-85
2022/08/13 07:25:26;;;;;;;;;22.60;22.60;;;;;23.15;62.39;99098.63;5087478;28;8853;-81
2022/08/13 07:28:20;;;;;;;;;26.60;22.40;;;;;22.76;63.21;99105.34;5071070;28;8842;-88
2022/08/13 07:31:10;;;;;;;;;22.60;21.00;;;;;22.92;63.57;99106.13;5072166;28;8834;-86
2022/08/13 07:33:43;;;;;;;;;24.20;24.20;;;;;23.30;62.32;99102.19;5037967;28;8872;-89
2022/08/13 07:36:24;;;;;;;;;24.40;24.20;;;;;23.42;61.76;99108.56;5075075;28;8869;-86
2022/08/13 07:38:54;;;;;;;;;23.40;22.20;;;;;23.65;60.74;99107.19;5075346;28;9741;-85
2022/08/13 07:41:27;;;;;;;;;25.20;23.60;;;;;23.92;59.48;99110.81;5056005;28;8858;-87
2022/08/13 07:43:59;;;;;;;;;22.00;22.00;;;;;23.34;61.11;99107.22;5058893;28;8884;-86
2022/08/13 07:46:42;;;;;;;;;23.00;21.80;;;;;22.68;62.80;99110.22;5069525;28;8860;-85
2022/08/13 07:49:26;;;;;;;;;21.60;20.80;;;;;22.02;65.60;99119.19;5110177;28;8852;-89
2022/08/13 07:52:28;;;;;;;;;25.00;20.60;;;;;21.86;67.45;99116.50;5083790;28;8867;-86
2022/08/13 07:55:25;;;;;;;;;27.00;25.25;;;;;21.98;67.28;99119.38;4999894;28;8857;-86
2022/08/13 07:58:19;;;;;;;;;26.25;25.25;;;;;21.87;68.16;99113.78;4971115;28;8861;-86
2022/08/13 08:00:49;;;;;;;;;29.25;28.25;;;;;21.88;68.29;99109.31;4980939;28;8861;-86
2022/08/13 08:03:19;;;;;;;;;24.60;24.00;;;;;21.58;69.24;99107.34;4965099;28;8876;-88
2022/08/13 08:05:51;;;;;;;;;27.40;26.00;;;;;21.72;69.77;99109.28;4967121;28;8852;-88
2022/08/13 08:08:58;;;;;;;;;26.80;24.80;;;;;21.41;70.88;99110.88;4952898;28;8859;-87
2022/08/13 08:14:23;;;;;;;;;28.00;27.80;;;;;21.98;69.56;99121.13;5012653;28;8874;-85
2022/08/13 08:17:00;;;;;;;;;27.20;26.20;;;;;22.40;67.50;99119.78;4999273;28;9611;-86
2022/08/13 08:19:50;;;;;;;;;29.40;28.40;;;;;23.01;66.62;99114.53;4995344;28;8874;-86
2022/08/13 08:22:45;;;;;;;;;31.80;28.60;;;;;23.48;65.19;99110.88;4958671;28;8972;-87
2022/08/13 08:25:18;;;;;;;;;26.75;26.25;;;;;23.24;64.93;99108.72;4955452;28;8867;-87
2022/08/13 08:27:50;;;;;;;;;27.00;26.80;;;;;23.42;63.82;99111.22;4964653;28;8988;-85
2022/08/13 08:30:42;;;;;;;;;22.60;22.00;;;;;23.67;62.65;99105.28;4972775;28;8985;-86
2022/08/13 08:33:26;;;;;;;;;25.00;25.00;;;;;23.30;63.24;99108.34;4958281;28;8873;-88
2022/08/13 08:36:15;;;;;;;;;25.40;24.80;;;;;23.14;63.34;99108.41;4959082;28;8987;-88
2022/08/13 08:44:44;;;;;;;;;26.60;24.60;;;;;23.31;63.09;99115.41;4970146;28;9027;-88
2022/08/13 08:47:18;;;;;;;;;24.20;24.20;;;;;23.28;63.08;99112.91;4959980;28;8854;-88
2022/08/13 08:50:13;;;;;;;;;21.80;21.80;;;;;23.41;63.22;99112.19;4961625;28;8854;-93
2022/08/13 08:55:50;;;;;;;;;27.80;26.80;;;;;24.13;60.59;99103.25;4998866;28;8900;-88
2022/08/13 08:58:22;;;;;;;;;21.80;20.60;;;;;23.97;60.54;99107.00;5050258;28;8844;-88
2022/08/13 09:01:11;;;;;;;;;27.40;24.60;;;;;24.32;60.43;99096.75;5077646;28;8954;-89
2022/08/13 09:03:49;;;;;;;;;27.20;25.40;;;;;24.37;59.32;99096.47;5043454;28;8845;-90
2022/08/13 09:06:31;;;;;;;;;28.40;26.40;;;;;24.34;60.81;99089.50;5070129;28;8862;-90
2022/08/13 09:09:22;;;;;;;;;31.00;29.00;;;;;24.55;59.94;99097.09;5059999;28;8876;-88
2022/08/13 09:11:55;;;;;;;;;24.80;23.80;;;;;23.76;61.96;99088.69;5085232;28;8937;-88
2022/08/13 09:14:30;;;;;;;;;23.60;23.40;;;;;23.47;61.92;99088.69;5060909;28;9318;-88
2022/08/13 09:17:03;;;;;;;;;29.75;29.25;;;;;23.56;64.09;99087.28;5031533;28;8848;-88
2022/08/13 09:19:42;;;;;;;;;24.00;24.00;;;;;23.49;63.71;99091.28;5040175;28;8962;-85
2022/08/13 09:22:32;;;;;;;;;21.40;21.00;;;;;23.15;62.02;99088.84;5072711;28;8867;-89
2022/08/13 09:25:09;;;;;;;;;24.40;24.20;;;;;23.25;63.92;99086.50;5056309;28;9601;-89
2022/08/13 09:27:44;;;;;;;;;22.60;22.20;;;;;23.38;63.86;99089.25;5056343;28;8860;-89
2022/08/13 09:30:53;;;;;;;;;27.60;26.60;;;;;23.45;63.03;99081.78;5020482;28;8848;-89
2022/08/13 09:33:45;;;;;;;;;24.00;24.00;;;;;23.53;62.79;99085.69;4983730;28;8853;-89
2022/08/13 09:36:32;;;;;;;;;25.60;24.20;;;;;23.64;63.15;99081.50;4961831;28;8920;-87
2022/08/13 09:39:04;;;;;;;;;23.40;23.40;;;;;23.60;62.50;99083.50;4971269;28;9053;-89
2022/08/13 09:41:40;;;;;;;;;24.80;22.80;;;;;24.25;61.00;99082.13;4971891;28;8889;-90
2022/08/13 09:44:10;;;;;;;;;22.60;21.00;;;;;23.14;62.94;99091.63;4954198;28;9605;-87
2022/08/13 09:46:46;;;;;;;;;25.00;23.80;;;;;23.58;62.41;99087.19;4976037;28;8850;-87
2022/08/13 09:49:23;;;;;;;;;27.00;26.25;;;;;23.72;61.31;99092.50;5000445;28;8850;-88
2022/08/13 09:52:14;;;;;;;;;24.60;21.60;;;;;23.69;60.02;99096.22;5021706;28;9678;-90
2022/08/13 09:54:48;;;;;;;;;16.40;16.40;;;;;23.54;60.98;99079.41;5006187;28;8889;-88
2022/08/13 09:57:21;;;;;;;;;30.25;27.75;;;;;23.73;61.98;99087.09;5038119;28;8867;-90
2022/08/13 09:59:52;;;;;;;;;27.75;27.00;;;;;24.04;59.85;99093.19;5039633;28;8846;-88
2022/08/13 10:02:48;;;;;;;;;27.00;26.75;;;;;23.99;61.27;99102.41;5048866;28;8870;-87
2022/08/13 10:05:21;;;;;;;;;27.20;27.00;;;;;24.03;61.37;99094.16;5064062;28;8949;-89
2022/08/13 10:07:57;;;;;;;;;26.00;24.80;;;;;24.73;59.12;99092.38;5057726;28;8844;-89
2022/08/13 10:10:28;;;;;;;;;25.40;24.40;;;;;24.25;59.16;99100.75;5070558;28;8905;-87
2022/08/13 10:13:02;;;;;;;;;29.00;27.00;;;;;24.00;60.11;99099.66;5041805;28;8848;-89
2022/08/13 10:15:32;;;;;;;;;29.20;29.20;;;;;24.20;59.55;99103.75;5041202;28;8986;-90
2022/08/13 10:18:06;;;;;;;;;30.00;29.00;;;;;23.90;61.23;99093.22;5067261;28;8982;-91
2022/08/13 10:20:40;;;;;;;;;28.75;27.25;;;;;23.73;62.05;99096.91;5048881;28;8868;-88
2022/08/13 10:23:17;;;;;;;;;26.40;26.00;;;;;23.77;61.41;99100.22;5028980;28;8833;-88
2022/08/13 10:26:02;;;;;;;;;27.50;26.25;;;;;23.85;60.92;99097.97;5070698;28;8891;-89
2022/08/13 10:28:42;;;;;;;;;25.60;25.60;;;;;24.65;58.49;99101.75;5075941;28;8964;-88
2022/08/13 10:31:19;;;;;;;;;25.00;24.00;;;;;25.04;57.24;99088.50;5033493;28;8869;-88
2022/08/13 10:34:30;;;;;;;;;27.40;26.60;;;;;24.51;57.96;99091.97;5076722;28;8855;-87
2022/08/13 10:37:21;;;;;;;;;27.50;27.25;;;;;25.08;57.16;99084.66;5075851;28;8852;-90
2022/08/13 10:39:55;;;;;;;;;33.00;28.50;;;;;24.78;57.85;99088.44;5065036;28;8828;-89
2022/08/13 10:42:26;;;;;;;;;30.25;30.00;;;;;24.42;58.72;99083.69;5039154;28;8859;-89
2022/08/13 10:45:00;;;;;;;;;31.25;30.00;;;;;24.39;58.68;99091.91;5044168;28;8826;-87
2022/08/13 10:47:31;;;;;;;;;26.00;26.00;;;;;24.50;57.88;99087.56;5084436;28;8845;-84
2022/08/13 10:50:29;;;;;;;;;33.75;29.75;;;;;24.26;59.25;99083.84;5079503;28;8826;-91
2022/08/13 10:52:59;;;;;;;;;27.50;26.50;;;;;24.54;58.08;99090.06;5075277;28;8849;-90
2022/08/13 10:56:19;;;;;;;;;28.25;27.50;;;;;24.45;58.65;99086.16;5058953;28;8885;-89
2022/08/13 10:58:50;;;;;;;;;27.00;25.50;;;;;24.07;59.36;99082.34;5076204;28;8861;-88
2022/08/13 11:01:26;;;;;;;;;25.75;25.00;;;;;23.95;58.84;99083.13;5095692;28;8834;-87
2022/08/13 11:03:58;;;;;;;;;29.25;27.75;;;;;23.79;59.57;99085.03;5073284;28;8850;-80
2022/08/13 11:06:36;;;;;;;;;30.00;29.00;;;;;24.17;58.26;99085.28;5093413;28;8913;-81
2022/08/13 11:09:08;;;;;;;;;31.00;29.75;;;;;24.08;59.11;99084.06;5091665;28;8859;-86
2022/08/13 11:11:57;;;;;;;;;31.25;30.25;;;;;24.67;57.59;99082.97;5081587;28;8828;-91
2022/08/13 11:15:01;;;;;;;;;32.00;30.25;;;;;24.54;57.69;99077.59;5117464;28;8875;-86
2022/08/13 11:17:36;;;;;;;;;31.00;30.00;;;;;24.30;58.80;99072.88;5063023;28;8863;-79
2022/08/13 11:20:25;;;;;;;;;23.75;23.50;;;;;24.30;59.05;99067.53;5093177;28;8865;-79
2022/08/13 11:22:58;;;;;;;;;30.75;29.50;;;;;25.04;57.20;99061.81;5092918;28;8890;-80
2022/08/13 11:25:28;;;;;;;;;31.50;28.75;;;;;24.59;57.95;99063.94;5097624;28;8848;-89
2022/08/13 11:28:23;;;;;;;;;28.75;28.25;;;;;25.01;56.88;99048.69;5085798;28;8832;-89
2022/08/13 11:30:56;;;;;;;;;30.00;28.00;;;;;25.77;54.80;99049.69;5096492;28;8935;-84
2022/08/13 11:33:26;;;;;;;;;36.25;32.00;;;;;25.97;53.86;99045.59;5098371;28;9593;-86
2022/08/13 11:36:15;;;;;;;;;30.75;29.50;;;;;25.93;53.39;99049.47;5080348;28;8876;-82
2022/08/13 11:38:45;;;;;;;;;30.75;29.50;;;;;25.78;53.56;99052.22;5111853;28;8840;-85
2022/08/13 11:41:14;;;;;;;;;27.25;26.25;;;;;25.95;53.00;99048.38;5113210;28;8867;-85
2022/08/13 11:43:48;;;;;;;;;30.00;28.00;;;;;26.73;50.52;99031.09;5080368;28;8919;-83
2022/08/13 11:46:28;;;;;;;;;24.40;24.40;;;;;27.49;49.28;99026.16;5094738;28;8883;-84
2022/08/13 11:48:57;;;;;;;;;28.00;25.20;;;;;27.76;47.26;99027.59;5076401;28;8839;-87
2022/08/13 11:51:38;;;;;;;;;25.60;23.80;;;;;27.62;46.79;99028.72;5079707;28;8902;-86
2022/08/13 11:54:21;;;;;;;;;27.40;25.60;;;;;28.03;46.75;99023.69;5086338;28;8911;-87
2022/08/13 11:57:01;;;;;;;;;19.60;18.20;;;;;28.66;45.46;99019.41;5065717;28;8894;-84
2022/08/13 11:59:30;;;;;;;;;22.60;21.40;;;;;29.21;43.63;99019.22;5073620;28;8862;-87
2022/08/13 12:02:09;;;;;;;;;28.80;28.00;;;;;29.72;42.68;99025.53;5054455;28;8838;-84
2022/08/13 12:04:44;;;;;;;;;23.40;23.40;;;;;29.92;42.01;99019.28;5072091;28;9701;-88
2022/08/13 12:07:23;;;;;;;;;25.80;25.00;;;;;29.92;41.22;99030.03;5072081;28;8904;-87
2022/08/13 12:09:53;;;;;;;;;25.80;24.40;;;;;29.67;42.14;99019.72;5054853;28;8920;-86
2022/08/13 12:12:26;;;;;;;;;26.60;25.80;;;;;30.03;41.29;99015.59;5038889;28;8855;-84
2022/08/13 12:15:09;;;;;;;;;25.25;25.25;;;;;29.00;42.83;99018.34;5054975;28;8897;-84
2022/08/13 12:17:43;;;;;;;;;21.00;19.00;;;;;29.85;42.08;99009.19;5038816;28;8868;-85
2022/08/13 12:20:23;;;;;;;;;20.40;18.80;;;;;30.47;40.16;99004.50;5054659;28;8856;-85
2022/08/13 12:22:59;;;;;;;;;26.40;26.40;;;;;30.64;39.12;99008.31;5071130;28;8852;-86
2022/08/13 12:25:30;;;;;;;;;22.00;21.60;;;;;30.26;39.56;99005.44;5053241;28;8879;-86
2022/08/13 12:28:24;;;;;;;;;24.20;22.40;;;;;29.23;41.71;99011.88;5065279;28;8885;-89
2022/08/13 12:30:58;;;;;;;;;23.00;21.00;;;;;28.56;42.93;99016.63;5056506;28;8858;-88
2022/08/13 12:33:29;;;;;;;;;23.00;22.20;;;;;27.59;45.51;99011.03;5073447;28;9611;-84
2022/08/13 12:36:11;;;;;;;;;23.00;21.80;;;;;28.11;44.70;99003.34;5045641;28;8852;-84
2022/08/13 12:38:45;;;;;;;;;23.60;23.60;;;;;28.77;42.93;99003.22;5000617;28;8848;-84
2022/08/13 12:41:31;;;;;;;;;22.80;22.40;;;;;29.31;40.73;98995.09;5028636;28;9070;-85